sensor_id;sensor_type;location;lat;lon;timestamp;P1;durP1;ratioP1;P2;durP2;ratioP2
48897;SDS011;34713;50.038;20.000;2022-11-03T00:01:56;29.95;;;17.30;;
48897;SDS011;34713;50.038;20.000;2022-11-03T00:04:21;29.40;;;17.05;;
48897;SDS011;34713;50.038;20.000;2022-11-03T00:06:51;25.55;;;15.15;;
48897;SDS011;34713;50.038;20.000;2022-11-03T00:09:19;31.57;;;16.17;;
48897;SDS011;34713;50.038;20.000;2022-11-03T00:11:48;27.52;;;15.43;;
48897;SDS011;34713;50.038;20.000;2022-11-03T00:14:15;27.85;;;16.07;;
48897;SDS011;34713;50.038;20.000;2022-11-03T00:16:42;25.00;;;14.98;;
48897;SDS011;34713;50.038;20.000;2022-11-03T00:19:08;30.43;;;16.73;;
48897;SDS011;34713;50.038;20.000;2022-11-03T00:21:35;32.53;;;16.77;;
48897;SDS011;34713;50.038;20.000;2022-11-03T00:24:02;28.05;;;15.50;;
48897;SDS011;34713;50.038;20.000;2022-11-03T00:26:29;27.65;;;15.08;;
48897;SDS011;34713;50.038;20.000;2022-11-03T00:29:06;29.98;;;15.38;;
48897;SDS011;34713;50.038;20.000;2022-11-03T00:31:34;30.25;;;15.53;;
48897;SDS011;34713;50.038;20.000;2022-11-03T00:34:03;30.77;;;16.62;;
48897;SDS011;34713;50.038;20.000;2022-11-03T00:36:31;30.40;;;15.63;;
48897;SDS011;34713;50.038;20.000;2022-11-03T00:39:00;30.02;;;15.70;;
48897;SDS011;34713;50.038;20.000;2022-11-03T00:41:27;30.80;;;16.60;;
48897;SDS011;34713;50.038;20.000;2022-11-03T00:43:53;27.05;;;14.90;;
48897;SDS011;34713;50.038;20.000;2022-11-03T00:46:20;32.63;;;15.35;;
48897;SDS011;34713;50.038;20.000;2022-11-03T00:48:47;26.02;;;14.87;;
48897;SDS011;34713;50.038;20.000;2022-11-03T00:51:14;28.15;;;15.18;;
48897;SDS011;34713;50.038;20.000;2022-11-03T00:53:44;26.23;;;14.53;;
48897;SDS011;34713;50.038;20.000;2022-11-03T00:56:13;25.88;;;14.58;;
48897;SDS011;34713;50.038;20.000;2022-11-03T00:58:42;26.20;;;14.03;;
48897;SDS011;34713;50.038;20.000;2022-11-03T01:01:12;27.13;;;14.53;;
48897;SDS011;34713;50.038;20.000;2022-11-03T01:03:42;27.58;;;14.80;;
48897;SDS011;34713;50.038;20.000;2022-11-03T01:06:13;26.40;;;14.50;;
48897;SDS011;34713;50.038;20.000;2022-11-03T01:08:57;23.53;;;13.67;;
48897;SDS011;34713;50.038;20.000;2022-11-03T01:11:23;25.82;;;14.33;;
48897;SDS011;34713;50.038;20.000;2022-11-03T01:14:13;27.47;;;13.93;;
48897;SDS011;34713;50.038;20.000;2022-11-03T01:16:40;23.50;;;13.50;;
48897;SDS011;34713;50.038;20.000;2022-11-03T01:19:06;25.02;;;14.05;;
48897;SDS011;34713;50.038;20.000;2022-11-03T01:21:33;23.67;;;13.78;;
48897;SDS011;34713;50.038;20.000;2022-11-03T01:24:01;22.42;;;12.40;;
48897;SDS011;34713;50.038;20.000;2022-11-03T01:26:29;23.47;;;14.00;;
48897;SDS011;34713;50.038;20.000;2022-11-03T01:28:57;22.65;;;13.43;;
48897;SDS011;34713;50.038;20.000;2022-11-03T01:31:24;24.27;;;12.70;;
48897;SDS011;34713;50.038;20.000;2022-11-03T01:33:51;26.15;;;13.40;;
48897;SDS011;34713;50.038;20.000;2022-11-03T01:36:19;23.32;;;13.50;;
48897;SDS011;34713;50.038;20.000;2022-11-03T01:38:45;30.68;;;13.43;;
48897;SDS011;34713;50.038;20.000;2022-11-03T01:41:13;20.80;;;12.43;;
48897;SDS011;34713;50.038;20.000;2022-11-03T01:43:42;23.70;;;12.90;;
48897;SDS011;34713;50.038;20.000;2022-11-03T01:48:58;26.65;;;13.62;;
48897;SDS011;34713;50.038;20.000;2022-11-03T01:51:28;24.60;;;12.93;;
48897;SDS011;34713;50.038;20.000;2022-11-03T01:53:57;21.68;;;12.05;;
48897;SDS011;34713;50.038;20.000;2022-11-03T01:56:27;25.30;;;13.58;;
48897;SDS011;34713;50.038;20.000;2022-11-03T01:58:56;22.25;;;13.25;;
48897;SDS011;34713;50.038;20.000;2022-11-03T02:01:22;24.10;;;13.70;;
48897;SDS011;34713;50.038;20.000;2022-11-03T02:03:53;24.30;;;13.35;;
48897;SDS011;34713;50.038;20.000;2022-11-03T02:06:19;21.82;;;14.00;;
48897;SDS011;34713;50.038;20.000;2022-11-03T02:08:49;27.52;;;13.62;;
48897;SDS011;34713;50.038;20.000;2022-11-03T02:11:25;22.22;;;12.85;;
48897;SDS011;34713;50.038;20.000;2022-11-03T02:14:10;24.80;;;14.55;;
48897;SDS011;34713;50.038;20.000;2022-11-03T02:16:40;23.77;;;14.05;;
48897;SDS011;34713;50.038;20.000;2022-11-03T02:19:19;25.12;;;14.38;;
48897;SDS011;34713;50.038;20.000;2022-11-03T02:22:19;27.75;;;14.35;;
48897;SDS011;34713;50.038;20.000;2022-11-03T02:27:52;25.60;;;14.75;;
48897;SDS011;34713;50.038;20.000;2022-11-03T02:30:18;24.47;;;13.95;;
48897;SDS011;34713;50.038;20.000;2022-11-03T02:32:51;24.47;;;14.60;;
48897;SDS011;34713;50.038;20.000;2022-11-03T02:35:44;27.25;;;13.95;;
48897;SDS011;34713;50.038;20.000;2022-11-03T02:38:13;27.25;;;13.53;;
48897;SDS011;34713;50.038;20.000;2022-11-03T02:40:43;23.42;;;14.50;;
48897;SDS011;34713;50.038;20.000;2022-11-03T02:43:12;23.15;;;13.72;;
48897;SDS011;34713;50.038;20.000;2022-11-03T02:45:40;23.95;;;13.78;;
48897;SDS011;34713;50.038;20.000;2022-11-03T02:48:08;25.90;;;13.75;;
48897;SDS011;34713;50.038;20.000;2022-11-03T02:50:37;27.75;;;14.53;;
48897;SDS011;34713;50.038;20.000;2022-11-03T02:53:02;27.67;;;14.28;;
48897;SDS011;34713;50.038;20.000;2022-11-03T02:55:33;28.30;;;14.93;;
48897;SDS011;34713;50.038;20.000;2022-11-03T03:01:11;26.33;;;14.38;;
48897;SDS011;34713;50.038;20.000;2022-11-03T03:03:41;26.42;;;14.60;;
48897;SDS011;34713;50.038;20.000;2022-11-03T03:06:15;25.82;;;14.63;;
48897;SDS011;34713;50.038;20.000;2022-11-03T03:08:51;25.08;;;14.53;;
48897;SDS011;34713;50.038;20.000;2022-11-03T03:11:18;27.00;;;14.53;;
48897;SDS011;34713;50.038;20.000;2022-11-03T03:13:49;26.30;;;13.95;;
48897;SDS011;34713;50.038;20.000;2022-11-03T03:16:25;27.13;;;13.80;;
48897;SDS011;34713;50.038;20.000;2022-11-03T03:21:36;25.60;;;13.78;;
48897;SDS011;34713;50.038;20.000;2022-11-03T03:24:08;31.10;;;13.90;;
48897;SDS011;34713;50.038;20.000;2022-11-03T03:26:41;25.35;;;14.15;;
48897;SDS011;34713;50.038;20.000;2022-11-03T03:29:15;23.60;;;13.20;;
48897;SDS011;34713;50.038;20.000;2022-11-03T03:31:58;22.58;;;13.18;;
48897;SDS011;34713;50.038;20.000;2022-11-03T03:34:27;25.48;;;14.33;;
48897;SDS011;34713;50.038;20.000;2022-11-03T03:36:55;22.58;;;13.32;;
48897;SDS011;34713;50.038;20.000;2022-11-03T03:39:24;24.92;;;13.48;;
48897;SDS011;34713;50.038;20.000;2022-11-03T03:41:54;31.48;;;14.93;;
48897;SDS011;34713;50.038;20.000;2022-11-03T03:44:22;26.35;;;13.83;;
48897;SDS011;34713;50.038;20.000;2022-11-03T03:46:59;25.65;;;14.65;;
48897;SDS011;34713;50.038;20.000;2022-11-03T03:49:25;24.23;;;14.47;;
48897;SDS011;34713;50.038;20.000;2022-11-03T03:51:51;29.85;;;14.03;;
48897;SDS011;34713;50.038;20.000;2022-11-03T03:54:17;27.58;;;13.85;;
48897;SDS011;34713;50.038;20.000;2022-11-03T03:59:20;25.20;;;14.07;;
48897;SDS011;34713;50.038;20.000;2022-11-03T04:01:45;27.40;;;15.00;;
48897;SDS011;34713;50.038;20.000;2022-11-03T04:04:11;28.32;;;15.18;;
48897;SDS011;34713;50.038;20.000;2022-11-03T04:06:37;26.15;;;14.45;;
48897;SDS011;34713;50.038;20.000;2022-11-03T04:09:03;25.92;;;14.40;;
48897;SDS011;34713;50.038;20.000;2022-11-03T04:11:28;24.80;;;14.43;;
48897;SDS011;34713;50.038;20.000;2022-11-03T04:14:12;23.32;;;14.58;;
48897;SDS011;34713;50.038;20.000;2022-11-03T04:16:57;27.87;;;14.00;;
48897;SDS011;34713;50.038;20.000;2022-11-03T04:19:41;33.18;;;15.23;;
48897;SDS011;34713;50.038;20.000;2022-11-03T04:22:27;27.97;;;15.03;;
48897;SDS011;34713;50.038;20.000;2022-11-03T04:24:56;26.30;;;14.47;;
48897;SDS011;34713;50.038;20.000;2022-11-03T04:27:27;28.12;;;15.20;;
48897;SDS011;34713;50.038;20.000;2022-11-03T04:30:08;24.10;;;14.60;;
48897;SDS011;34713;50.038;20.000;2022-11-03T04:32:48;29.85;;;14.25;;
48897;SDS011;34713;50.038;20.000;2022-11-03T04:35:19;24.47;;;14.78;;
48897;SDS011;34713;50.038;20.000;2022-11-03T04:38:02;24.43;;;14.73;;
48897;SDS011;34713;50.038;20.000;2022-11-03T04:40:27;23.18;;;14.78;;
48897;SDS011;34713;50.038;20.000;2022-11-03T04:42:53;30.12;;;16.07;;
48897;SDS011;34713;50.038;20.000;2022-11-03T04:45:21;26.75;;;16.20;;
48897;SDS011;34713;50.038;20.000;2022-11-03T04:47:51;29.37;;;16.82;;
48897;SDS011;34713;50.038;20.000;2022-11-03T04:50:18;27.55;;;16.77;;
48897;SDS011;34713;50.038;20.000;2022-11-03T04:52:47;28.57;;;17.00;;
48897;SDS011;34713;50.038;20.000;2022-11-03T04:55:15;29.67;;;16.12;;
48897;SDS011;34713;50.038;20.000;2022-11-03T04:57:43;29.37;;;16.60;;
48897;SDS011;34713;50.038;20.000;2022-11-03T05:00:14;29.32;;;17.10;;
48897;SDS011;34713;50.038;20.000;2022-11-03T05:02:47;29.70;;;16.35;;
48897;SDS011;34713;50.038;20.000;2022-11-03T05:05:15;27.95;;;16.52;;
48897;SDS011;34713;50.038;20.000;2022-11-03T05:07:45;31.02;;;17.60;;
48897;SDS011;34713;50.038;20.000;2022-11-03T05:10:17;33.92;;;17.73;;
48897;SDS011;34713;50.038;20.000;2022-11-03T05:12:49;30.37;;;17.37;;
48897;SDS011;34713;50.038;20.000;2022-11-03T05:15:25;29.32;;;17.17;;
48897;SDS011;34713;50.038;20.000;2022-11-03T05:18:20;27.58;;;17.17;;
48897;SDS011;34713;50.038;20.000;2022-11-03T05:21:08;31.60;;;17.65;;
48897;SDS011;34713;50.038;20.000;2022-11-03T05:23:23;34.43;;;18.20;;
48897;SDS011;34713;50.038;20.000;2022-11-03T05:25:52;33.38;;;19.02;;
48897;SDS011;34713;50.038;20.000;2022-11-03T05:30:56;33.30;;;17.90;;
48897;SDS011;34713;50.038;20.000;2022-11-03T05:35:57;36.95;;;18.27;;
48897;SDS011;34713;50.038;20.000;2022-11-03T05:38:31;33.15;;;19.57;;
48897;SDS011;34713;50.038;20.000;2022-11-03T05:40:58;34.90;;;19.12;;
48897;SDS011;34713;50.038;20.000;2022-11-03T05:43:25;40.55;;;19.32;;
48897;SDS011;34713;50.038;20.000;2022-11-03T05:45:54;33.33;;;18.48;;
48897;SDS011;34713;50.038;20.000;2022-11-03T05:48:26;34.43;;;18.75;;
48897;SDS011;34713;50.038;20.000;2022-11-03T05:51:11;40.40;;;19.30;;
48897;SDS011;34713;50.038;20.000;2022-11-03T05:53:51;40.48;;;19.73;;
48897;SDS011;34713;50.038;20.000;2022-11-03T05:56:21;40.33;;;20.10;;
48897;SDS011;34713;50.038;20.000;2022-11-03T05:58:48;39.33;;;18.77;;
48897;SDS011;34713;50.038;20.000;2022-11-03T06:03:56;38.10;;;19.15;;
48897;SDS011;34713;50.038;20.000;2022-11-03T06:06:32;39.15;;;18.40;;
48897;SDS011;34713;50.038;20.000;2022-11-03T06:09:10;38.58;;;18.90;;
48897;SDS011;34713;50.038;20.000;2022-11-03T06:11:40;38.40;;;19.30;;
48897;SDS011;34713;50.038;20.000;2022-11-03T06:14:12;34.08;;;17.98;;
48897;SDS011;34713;50.038;20.000;2022-11-03T06:21:57;34.23;;;18.77;;
48897;SDS011;34713;50.038;20.000;2022-11-03T06:24:28;33.08;;;18.12;;
48897;SDS011;34713;50.038;20.000;2022-11-03T06:26:56;34.90;;;17.00;;
48897;SDS011;34713;50.038;20.000;2022-11-03T06:29:22;29.10;;;17.75;;
48897;SDS011;34713;50.038;20.000;2022-11-03T06:31:49;32.73;;;17.75;;
48897;SDS011;34713;50.038;20.000;2022-11-03T06:37:15;30.57;;;18.67;;
48897;SDS011;34713;50.038;20.000;2022-11-03T06:39:55;36.25;;;18.50;;
48897;SDS011;34713;50.038;20.000;2022-11-03T06:42:26;34.25;;;19.73;;
48897;SDS011;34713;50.038;20.000;2022-11-03T06:44:57;36.40;;;19.40;;
48897;SDS011;34713;50.038;20.000;2022-11-03T06:47:24;33.15;;;18.48;;
48897;SDS011;34713;50.038;20.000;2022-11-03T06:49:57;38.60;;;19.55;;
48897;SDS011;34713;50.038;20.000;2022-11-03T06:52:23;40.12;;;18.73;;
48897;SDS011;34713;50.038;20.000;2022-11-03T06:54:59;35.03;;;19.52;;
48897;SDS011;34713;50.038;20.000;2022-11-03T06:57:39;37.95;;;19.98;;
48897;SDS011;34713;50.038;20.000;2022-11-03T07:00:16;42.20;;;21.33;;
48897;SDS011;34713;50.038;20.000;2022-11-03T07:05:54;41.80;;;23.22;;
48897;SDS011;34713;50.038;20.000;2022-11-03T07:08:46;38.75;;;22.42;;
48897;SDS011;34713;50.038;20.000;2022-11-03T07:11:18;33.83;;;23.20;;
48897;SDS011;34713;50.038;20.000;2022-11-03T07:13:53;39.70;;;23.30;;
48897;SDS011;34713;50.038;20.000;2022-11-03T07:16:39;37.93;;;21.12;;
48897;SDS011;34713;50.038;20.000;2022-11-03T07:19:26;37.95;;;18.35;;
48897;SDS011;34713;50.038;20.000;2022-11-03T07:22:00;34.25;;;18.25;;
48897;SDS011;34713;50.038;20.000;2022-11-03T07:24:47;37.15;;;18.40;;
48897;SDS011;34713;50.038;20.000;2022-11-03T07:29:50;29.35;;;14.78;;
48897;SDS011;34713;50.038;20.000;2022-11-03T07:32:23;28.12;;;14.47;;
48897;SDS011;34713;50.038;20.000;2022-11-03T07:37:49;25.88;;;13.28;;
48897;SDS011;34713;50.038;20.000;2022-11-03T07:40:18;29.75;;;16.55;;
48897;SDS011;34713;50.038;20.000;2022-11-03T07:42:50;23.90;;;14.75;;
48897;SDS011;34713;50.038;20.000;2022-11-03T07:45:29;26.57;;;14.95;;
48897;SDS011;34713;50.038;20.000;2022-11-03T07:59:41;30.32;;;16.10;;
48897;SDS011;34713;50.038;20.000;2022-11-03T08:04:52;26.30;;;14.05;;
48897;SDS011;34713;50.038;20.000;2022-11-03T08:07:17;27.98;;;15.70;;
48897;SDS011;34713;50.038;20.000;2022-11-03T08:09:43;31.10;;;15.38;;
48897;SDS011;34713;50.038;20.000;2022-11-03T08:12:09;29.02;;;15.28;;
48897;SDS011;34713;50.038;20.000;2022-11-03T08:14:35;27.70;;;15.30;;
48897;SDS011;34713;50.038;20.000;2022-11-03T08:17:02;28.87;;;16.07;;
48897;SDS011;34713;50.038;20.000;2022-11-03T08:19:28;27.77;;;15.65;;
48897;SDS011;34713;50.038;20.000;2022-11-03T08:21:55;25.57;;;14.65;;
48897;SDS011;34713;50.038;20.000;2022-11-03T08:24:21;24.37;;;12.53;;
48897;SDS011;34713;50.038;20.000;2022-11-03T08:26:47;24.00;;;11.48;;
48897;SDS011;34713;50.038;20.000;2022-11-03T08:29:13;23.42;;;12.15;;
48897;SDS011;34713;50.038;20.000;2022-11-03T08:31:41;22.50;;;11.43;;
48897;SDS011;34713;50.038;20.000;2022-11-03T08:34:06;27.00;;;12.65;;
48897;SDS011;34713;50.038;20.000;2022-11-03T08:36:32;26.93;;;12.53;;
48897;SDS011;34713;50.038;20.000;2022-11-03T08:38:58;27.42;;;11.93;;
48897;SDS011;34713;50.038;20.000;2022-11-03T08:41:24;29.75;;;11.12;;
48897;SDS011;34713;50.038;20.000;2022-11-03T08:43:50;45.80;;;10.70;;
48897;SDS011;34713;50.038;20.000;2022-11-03T08:46:15;24.10;;;9.33;;
48897;SDS011;34713;50.038;20.000;2022-11-03T08:48:41;20.50;;;9.30;;
48897;SDS011;34713;50.038;20.000;2022-11-03T08:51:07;40.88;;;13.80;;
48897;SDS011;34713;50.038;20.000;2022-11-03T08:53:34;33.53;;;13.68;;
48897;SDS011;34713;50.038;20.000;2022-11-03T08:56:00;31.73;;;13.90;;
48897;SDS011;34713;50.038;20.000;2022-11-03T08:58:26;25.95;;;11.73;;
48897;SDS011;34713;50.038;20.000;2022-11-03T09:00:52;26.97;;;10.18;;
48897;SDS011;34713;50.038;20.000;2022-11-03T09:03:18;23.00;;;10.05;;
48897;SDS011;34713;50.038;20.000;2022-11-03T09:05:43;21.62;;;10.45;;
48897;SDS011;34713;50.038;20.000;2022-11-03T09:08:09;23.98;;;11.55;;
48897;SDS011;34713;50.038;20.000;2022-11-03T09:10:35;25.08;;;11.45;;
48897;SDS011;34713;50.038;20.000;2022-11-03T09:13:01;25.00;;;11.70;;
48897;SDS011;34713;50.038;20.000;2022-11-03T09:15:27;29.02;;;11.22;;
48897;SDS011;34713;50.038;20.000;2022-11-03T09:17:53;22.90;;;10.10;;
48897;SDS011;34713;50.038;20.000;2022-11-03T09:20:19;24.67;;;9.80;;
48897;SDS011;34713;50.038;20.000;2022-11-03T09:22:45;24.23;;;10.30;;
48897;SDS011;34713;50.038;20.000;2022-11-03T09:25:11;24.10;;;10.58;;
48897;SDS011;34713;50.038;20.000;2022-11-03T09:27:37;31.90;;;11.38;;
48897;SDS011;34713;50.038;20.000;2022-11-03T09:30:03;30.00;;;11.50;;
48897;SDS011;34713;50.038;20.000;2022-11-03T09:32:30;25.20;;;10.65;;
48897;SDS011;34713;50.038;20.000;2022-11-03T09:34:57;26.17;;;9.03;;
48897;SDS011;34713;50.038;20.000;2022-11-03T09:37:22;23.73;;;8.95;;
48897;SDS011;34713;50.038;20.000;2022-11-03T09:39:48;21.57;;;10.10;;
48897;SDS011;34713;50.038;20.000;2022-11-03T09:42:14;18.98;;;9.55;;
48897;SDS011;34713;50.038;20.000;2022-11-03T09:44:41;18.27;;;9.65;;
48897;SDS011;34713;50.038;20.000;2022-11-03T09:47:08;17.42;;;8.70;;
48897;SDS011;34713;50.038;20.000;2022-11-03T09:49:38;23.83;;;8.85;;
48897;SDS011;34713;50.038;20.000;2022-11-03T09:52:04;17.73;;;8.98;;
48897;SDS011;34713;50.038;20.000;2022-11-03T09:54:30;18.15;;;8.50;;
48897;SDS011;34713;50.038;20.000;2022-11-03T09:56:57;15.75;;;8.48;;
48897;SDS011;34713;50.038;20.000;2022-11-03T09:59:33;16.55;;;7.83;;
48897;SDS011;34713;50.038;20.000;2022-11-03T10:01:58;18.20;;;7.65;;
48897;SDS011;34713;50.038;20.000;2022-11-03T10:04:25;15.25;;;7.03;;
48897;SDS011;34713;50.038;20.000;2022-11-03T10:06:55;16.27;;;6.95;;
48897;SDS011;34713;50.038;20.000;2022-11-03T10:09:22;16.20;;;7.53;;
48897;SDS011;34713;50.038;20.000;2022-11-03T10:11:50;19.23;;;5.80;;
48897;SDS011;34713;50.038;20.000;2022-11-03T10:14:18;13.00;;;6.45;;
48897;SDS011;34713;50.038;20.000;2022-11-03T10:16:50;12.75;;;5.62;;
48897;SDS011;34713;50.038;20.000;2022-11-03T10:19:24;10.90;;;4.72;;
48897;SDS011;34713;50.038;20.000;2022-11-03T10:21:50;11.15;;;4.78;;
48897;SDS011;34713;50.038;20.000;2022-11-03T10:24:16;12.28;;;3.87;;
48897;SDS011;34713;50.038;20.000;2022-11-03T10:29:21;12.18;;;4.90;;
48897;SDS011;34713;50.038;20.000;2022-11-03T10:31:53;11.78;;;4.00;;
48897;SDS011;34713;50.038;20.000;2022-11-03T10:34:37;10.00;;;3.70;;
48897;SDS011;34713;50.038;20.000;2022-11-03T10:37:22;9.93;;;3.47;;
48897;SDS011;34713;50.038;20.000;2022-11-03T10:39:55;11.97;;;3.55;;
48897;SDS011;34713;50.038;20.000;2022-11-03T10:45:07;8.25;;;3.00;;
48897;SDS011;34713;50.038;20.000;2022-11-03T10:47:43;10.28;;;3.75;;
48897;SDS011;34713;50.038;20.000;2022-11-03T10:50:21;13.88;;;4.53;;
48897;SDS011;34713;50.038;20.000;2022-11-03T10:52:50;13.15;;;3.67;;
48897;SDS011;34713;50.038;20.000;2022-11-03T10:55:16;9.28;;;3.70;;
48897;SDS011;34713;50.038;20.000;2022-11-03T10:57:44;8.88;;;3.50;;
48897;SDS011;34713;50.038;20.000;2022-11-03T11:00:12;15.60;;;4.03;;
48897;SDS011;34713;50.038;20.000;2022-11-03T11:02:40;13.68;;;4.05;;
48897;SDS011;34713;50.038;20.000;2022-11-03T11:05:12;8.38;;;3.65;;
48897;SDS011;34713;50.038;20.000;2022-11-03T11:07:45;6.87;;;2.77;;
48897;SDS011;34713;50.038;20.000;2022-11-03T11:10:12;9.50;;;3.22;;
48897;SDS011;34713;50.038;20.000;2022-11-03T11:15:57;6.72;;;3.27;;
48897;SDS011;34713;50.038;20.000;2022-11-03T11:20:58;8.18;;;3.17;;
48897;SDS011;34713;50.038;20.000;2022-11-03T11:31:44;9.13;;;2.83;;
48897;SDS011;34713;50.038;20.000;2022-11-03T11:50:15;7.62;;;2.95;;
48897;SDS011;34713;50.038;20.000;2022-11-03T11:55:34;8.63;;;2.83;;
48897;SDS011;34713;50.038;20.000;2022-11-03T11:58:05;9.43;;;3.10;;
48897;SDS011;34713;50.038;20.000;2022-11-03T12:00:51;10.28;;;3.50;;
48897;SDS011;34713;50.038;20.000;2022-11-03T12:03:22;10.15;;;2.85;;
48897;SDS011;34713;50.038;20.000;2022-11-03T12:06:00;11.50;;;3.58;;
48897;SDS011;34713;50.038;20.000;2022-11-03T12:08:27;8.43;;;3.62;;
48897;SDS011;34713;50.038;20.000;2022-11-03T12:10:56;11.08;;;3.35;;
48897;SDS011;34713;50.038;20.000;2022-11-03T12:14:31;11.55;;;3.30;;
48897;SDS011;34713;50.038;20.000;2022-11-03T12:16:28;13.00;;;3.33;;
48897;SDS011;34713;50.038;20.000;2022-11-03T12:24:59;9.78;;;3.00;;
48897;SDS011;34713;50.038;20.000;2022-11-03T12:30:02;11.65;;;3.30;;
48897;SDS011;34713;50.038;20.000;2022-11-03T12:32:32;6.95;;;3.42;;
48897;SDS011;34713;50.038;20.000;2022-11-03T12:34:58;11.48;;;3.30;;
48897;SDS011;34713;50.038;20.000;2022-11-03T12:37:24;7.58;;;2.90;;
48897;SDS011;34713;50.038;20.000;2022-11-03T12:39:50;9.85;;;4.03;;
48897;SDS011;34713;50.038;20.000;2022-11-03T12:42:16;10.18;;;3.40;;
48897;SDS011;34713;50.038;20.000;2022-11-03T12:44:43;9.40;;;2.85;;
48897;SDS011;34713;50.038;20.000;2022-11-03T12:47:09;9.38;;;3.27;;
48897;SDS011;34713;50.038;20.000;2022-11-03T12:49:35;12.75;;;4.03;;
48897;SDS011;34713;50.038;20.000;2022-11-03T12:52:01;9.38;;;3.40;;
48897;SDS011;34713;50.038;20.000;2022-11-03T12:54:28;11.48;;;3.60;;
48897;SDS011;34713;50.038;20.000;2022-11-03T12:56:54;13.60;;;3.55;;
48897;SDS011;34713;50.038;20.000;2022-11-03T12:59:20;11.45;;;4.28;;
48897;SDS011;34713;50.038;20.000;2022-11-03T13:01:46;8.53;;;4.00;;
48897;SDS011;34713;50.038;20.000;2022-11-03T13:04:11;10.23;;;3.92;;
48897;SDS011;34713;50.038;20.000;2022-11-03T13:06:37;9.40;;;3.50;;
48897;SDS011;34713;50.038;20.000;2022-11-03T13:09:03;13.62;;;4.10;;
48897;SDS011;34713;50.038;20.000;2022-11-03T13:11:29;10.68;;;3.62;;
48897;SDS011;34713;50.038;20.000;2022-11-03T13:14:13;9.15;;;3.42;;
48897;SDS011;34713;50.038;20.000;2022-11-03T13:16:38;10.90;;;3.50;;
48897;SDS011;34713;50.038;20.000;2022-11-03T13:19:04;16.80;;;3.70;;
48897;SDS011;34713;50.038;20.000;2022-11-03T13:21:30;10.08;;;3.87;;
48897;SDS011;34713;50.038;20.000;2022-11-03T13:23:56;10.95;;;3.92;;
48897;SDS011;34713;50.038;20.000;2022-11-03T13:26:22;10.45;;;3.60;;
48897;SDS011;34713;50.038;20.000;2022-11-03T13:28:47;11.68;;;3.70;;
48897;SDS011;34713;50.038;20.000;2022-11-03T13:31:13;8.80;;;3.95;;
48897;SDS011;34713;50.038;20.000;2022-11-03T13:33:39;14.95;;;4.20;;
48897;SDS011;34713;50.038;20.000;2022-11-03T13:36:05;9.63;;;3.62;;
48897;SDS011;34713;50.038;20.000;2022-11-03T13:38:31;8.83;;;4.20;;
48897;SDS011;34713;50.038;20.000;2022-11-03T13:40:57;9.58;;;3.45;;
48897;SDS011;34713;50.038;20.000;2022-11-03T13:43:23;8.75;;;3.60;;
48897;SDS011;34713;50.038;20.000;2022-11-03T13:45:49;13.22;;;4.17;;
48897;SDS011;34713;50.038;20.000;2022-11-03T13:48:14;11.18;;;3.65;;
48897;SDS011;34713;50.038;20.000;2022-11-03T13:50:44;12.93;;;4.03;;
48897;SDS011;34713;50.038;20.000;2022-11-03T13:53:10;15.63;;;3.75;;
48897;SDS011;34713;50.038;20.000;2022-11-03T13:55:36;8.53;;;3.50;;
48897;SDS011;34713;50.038;20.000;2022-11-03T13:58:02;8.68;;;3.77;;
48897;SDS011;34713;50.038;20.000;2022-11-03T14:00:27;11.38;;;3.55;;
48897;SDS011;34713;50.038;20.000;2022-11-03T14:02:53;18.05;;;4.50;;
48897;SDS011;34713;50.038;20.000;2022-11-03T14:05:19;11.88;;;3.70;;
48897;SDS011;34713;50.038;20.000;2022-11-03T14:07:45;11.50;;;4.00;;
48897;SDS011;34713;50.038;20.000;2022-11-03T14:10:11;15.70;;;3.72;;
48897;SDS011;34713;50.038;20.000;2022-11-03T14:12:36;9.43;;;3.60;;
48897;SDS011;34713;50.038;20.000;2022-11-03T14:15:03;13.60;;;3.70;;
48897;SDS011;34713;50.038;20.000;2022-11-03T14:17:33;8.30;;;3.65;;
48897;SDS011;34713;50.038;20.000;2022-11-03T14:20:00;9.40;;;4.10;;
48897;SDS011;34713;50.038;20.000;2022-11-03T14:22:27;12.00;;;4.40;;
48897;SDS011;34713;50.038;20.000;2022-11-03T14:24:54;13.75;;;4.30;;
48897;SDS011;34713;50.038;20.000;2022-11-03T14:27:22;14.38;;;4.20;;
48897;SDS011;34713;50.038;20.000;2022-11-03T14:29:48;7.10;;;3.80;;
48897;SDS011;34713;50.038;20.000;2022-11-03T14:32:14;13.53;;;3.85;;
48897;SDS011;34713;50.038;20.000;2022-11-03T14:34:41;10.32;;;3.42;;
48897;SDS011;34713;50.038;20.000;2022-11-03T14:37:08;6.83;;;3.05;;
48897;SDS011;34713;50.038;20.000;2022-11-03T14:39:35;11.57;;;3.50;;
48897;SDS011;34713;50.038;20.000;2022-11-03T14:42:02;10.68;;;3.62;;
48897;SDS011;34713;50.038;20.000;2022-11-03T14:47:04;5.78;;;2.52;;
48897;SDS011;34713;50.038;20.000;2022-11-03T14:49:33;9.98;;;3.30;;
48897;SDS011;34713;50.038;20.000;2022-11-03T14:51:59;10.08;;;3.25;;
48897;SDS011;34713;50.038;20.000;2022-11-03T14:54:27;10.00;;;2.72;;
48897;SDS011;34713;50.038;20.000;2022-11-03T14:56:53;11.90;;;3.50;;
48897;SDS011;34713;50.038;20.000;2022-11-03T14:59:20;12.53;;;3.37;;
48897;SDS011;34713;50.038;20.000;2022-11-03T15:01:46;14.50;;;3.00;;
48897;SDS011;34713;50.038;20.000;2022-11-03T15:04:15;12.55;;;3.27;;
48897;SDS011;34713;50.038;20.000;2022-11-03T15:06:41;10.32;;;3.30;;
48897;SDS011;34713;50.038;20.000;2022-11-03T15:09:09;8.98;;;3.40;;
48897;SDS011;34713;50.038;20.000;2022-11-03T15:11:36;9.43;;;3.90;;
48897;SDS011;34713;50.038;20.000;2022-11-03T15:14:02;9.03;;;3.92;;
48897;SDS011;34713;50.038;20.000;2022-11-03T15:16:28;8.93;;;4.00;;
48897;SDS011;34713;50.038;20.000;2022-11-03T15:18:54;11.55;;;4.42;;
48897;SDS011;34713;50.038;20.000;2022-11-03T15:21:19;12.75;;;4.50;;
48897;SDS011;34713;50.038;20.000;2022-11-03T15:23:45;9.40;;;4.00;;
48897;SDS011;34713;50.038;20.000;2022-11-03T15:26:11;12.40;;;4.37;;
48897;SDS011;34713;50.038;20.000;2022-11-03T15:28:37;11.60;;;4.20;;
48897;SDS011;34713;50.038;20.000;2022-11-03T15:31:04;15.15;;;5.28;;
48897;SDS011;34713;50.038;20.000;2022-11-03T15:33:30;12.00;;;4.28;;
48897;SDS011;34713;50.038;20.000;2022-11-03T15:35:55;13.20;;;4.55;;
48897;SDS011;34713;50.038;20.000;2022-11-03T15:38:21;13.20;;;4.58;;
48897;SDS011;34713;50.038;20.000;2022-11-03T15:40:47;13.25;;;4.17;;
48897;SDS011;34713;50.038;20.000;2022-11-03T15:43:13;13.08;;;4.65;;
48897;SDS011;34713;50.038;20.000;2022-11-03T15:45:38;9.35;;;5.00;;
48897;SDS011;34713;50.038;20.000;2022-11-03T15:48:05;11.50;;;4.53;;
48897;SDS011;34713;50.038;20.000;2022-11-03T15:50:31;11.88;;;5.22;;
48897;SDS011;34713;50.038;20.000;2022-11-03T15:52:57;12.75;;;4.60;;
48897;SDS011;34713;50.038;20.000;2022-11-03T15:55:23;13.98;;;5.25;;
48897;SDS011;34713;50.038;20.000;2022-11-03T15:57:50;20.80;;;5.47;;
48897;SDS011;34713;50.038;20.000;2022-11-03T16:00:16;13.40;;;5.65;;
48897;SDS011;34713;50.038;20.000;2022-11-03T16:02:44;15.78;;;5.42;;
48897;SDS011;34713;50.038;20.000;2022-11-03T16:05:11;15.00;;;6.10;;
48897;SDS011;34713;50.038;20.000;2022-11-03T16:07:38;14.03;;;5.80;;
48897;SDS011;34713;50.038;20.000;2022-11-03T16:10:04;15.83;;;6.05;;
48897;SDS011;34713;50.038;20.000;2022-11-03T16:12:31;11.85;;;5.65;;